Weather observations for the past three days for
Bastrop, Morehouse Memorial Airport
Metric (Imperial)
Date Time (cdt) Wind (kph) Vis. (km) Weather Sky Cond. Temperature (ºC) Relative Humidity Wind Chill (°C) Heat Index (°C) Pressure Precipitation (cm)
Air Dwpt 6 hour altimeter (cm) sea level (mb) 1 hr 3 hr 6 hr
Max. Min.
31 07:50 Calm 0.00 NULL NULL 25 22.8 88% 26 76.43 0.0
31 07:30 Calm 0.00 NULL NULL 23.9 22.8 94% 23 76.38 0.0
31 07:10 Calm 0.00 NULL NULL 22.9 22.5 98% 76.38 0.0
31 06:50 Calm 0.00 NULL NULL 22.2 21.6 24.8 22 96% 76.35 0.0
31 06:30 Calm 0.00 NULL NULL 22.6 22 96% 76.33 0.0
31 06:10 Calm 0.00 NULL NULL 22.7 22 96% 76.3 0.0
31 05:30 Calm 0.00 NULL NULL 23.1 21.9 93% 76.3 0.0
31 05:10 Calm 0.00 NULL NULL 23.2 22.2 94% 76.28 0.0
31 04:50 Calm 0.00 NULL NULL 23 22 94% 76.28 0.0
31 04:30 Calm 0.00 NULL NULL 23.1 21.7 92% 76.28 0.0
31 04:10 Calm 0.00 NULL NULL 23.3 21.9 92% 76.28 0.0
31 03:50 Calm 0.00 NULL NULL 23.5 21.9 91% 76.28 0.0
31 03:30 Calm 0.00 NULL NULL 24.2 22 88% 24 76.25 0.0
31 03:10 Calm 0.00 NULL NULL 24.4 22 87% 25 76.25 0.0
31 02:50 Calm 0.00 Fair CLR 24.5 21.9 86% 25 76.28 0.0
31 02:30 Calm 0.00 Fair CLR 24.7 21.8 84% 25 76.28 0.0
31 02:10 Calm 0.00 NULL NULL 24 21.8 88% 24 76.28 0.0
31 01:50 Calm 0.00 Fair CLR 24.5 21.7 84% 25 76.28 0.0
31 01:30 Calm 0.00 Fair CLR 24.2 21.7 86% 24 76.28 0.0
31 01:10 Calm 0.00 NULL NULL 24.1 21.6 86% 24 76.28 0.0
31 00:50 Calm 0.00 NULL NULL 24.1 21.6 30 23.5 86% 24 76.28 0.0
31 00:30 Calm 0.00 Fair CLR 24.2 21.5 85% 24 76.28 0.0
31 00:10 Calm 0.00 NULL NULL 23.6 21.5 88% 76.28 0.0
30 23:50 Calm 0.00 NULL NULL 23.7 21.6 88% 76.28 0.0
30 23:30 Calm 0.00 NULL NULL 23.7 21.5 88% 76.28 0.0
30 23:10 Calm 0.00 Fair CLR 24.1 21.6 86% 24 76.28 0.0
30 22:50 Calm 0.00 Fair CLR 24.4 21.6 84% 25 76.28 0.0
30 22:30 Calm 0.00 Fair CLR 24.4 21.6 84% 25 76.25 0.0
30 22:10 Calm 0.00 Fair CLR 25.3 21.6 80% 26 76.25 0.0
30 21:50 Calm 0.00 Fair CLR 25.8 21.5 77% 27 76.23 0.0
30 21:30 Calm 0.00 Fair CLR 26 21.5 76% 28 76.23 0.0
30 21:10 Calm 0.00 Fair CLR 25.9 21.4 76% 27 76.2 0.0
30 20:50 Calm 0.00 Fair CLR 26.2 21.2 74% 28 76.2 0.0
30 20:30 Calm 0.00 Fair CLR 26.5 20.9 71% 28 76.17 0.0
30 20:10 Calm 0.00 Fair CLR 26.4 20.9 72% 28 76.15 0.0
30 19:50 Calm 0.00 Fair CLR 27.1 20.7 68% 29 76.15 0.0
30 19:30 Calm 0.00 Fair CLR 27.7 20.9 67% 30 76.12 0.0
30 19:10 Calm 0.00 Fair CLR 28.8 21.6 65% 31 76.12 0.0
30 18:50 Calm 0.00 Fair CLR 30.5 22.1 36 30.5 61% 34 76.15 0.0
30 18:30 Calm 0.00 Fair CLR 32.2 21.9 55% 36 76.15 0.0
30 18:10 Calm 0.00 Fair CLR 33.5 20.4 46% 36 76.15 0.0
30 17:50 Calm 0.00 Fair CLR 34.5 18.2 38% 36 76.15 0.0
30 17:30 Calm 0.00 Fair CLR 35.1 16.2 32% 35 76.15 0.0
30 17:10 Calm 0.00 Fair CLR 35.3 15.1 30% 35 76.15 0.0
30 16:50 Calm 0.00 Fair CLR 35.4 15.2 30% 35 76.15 0.0
30 16:30 Calm 0.00 Fair CLR 35.5 14.9 29% 35 76.17 0.0
30 16:10 Calm 0.00 Fair CLR 35.7 15.7 30% 36 76.17 0.0
30 15:50 Calm 0.00 Fair CLR 35.9 14.7 28% 36 76.2 0.0
30 15:30 Calm 0.00 Fair CLR 35.7 15.2 29% 36 76.23 0.0
30 15:10 Calm 0.00 Fair CLR 35.2 14.4 29% 35 76.25 0.0
30 14:50 Calm 0.00 Fair CLR 35.5 15.9 31% 36 76.25 0.0
30 14:30 Calm 0.00 Fair CLR 35.4 16 31% 36 76.28 0.0
30 14:10 Calm 0.00 Fair CLR 34.9 15.7 32% 35 76.28 0.0
30 13:50 Calm 0.00 Fair CLR 35.3 16.3 32% 36 76.3 0.0
30 13:30 Calm 0.00 Fair CLR 35.1 18.1 36% 36 76.33 0.0
30 13:10 Calm 0.00 Fair CLR 34.6 17.5 36% 35 76.33 0.0
30 12:50 Calm 0.00 Fair CLR 34.6 18.8 34.6 20 39% 36 76.33 0.0
30 12:30 Calm 0.00 Fair CLR 34 18.2 39% 35 76.35 0.0
30 12:10 Calm 0.00 Fair CLR 33.7 17.8 39% 35 76.38 0.0
30 11:50 Calm 0.00 Fair CLR 33.5 17.3 38% 34 76.4 0.0
30 11:30 Calm 0.00 Fair CLR 33.2 19.4 44% 35 76.4 0.0
30 11:10 Calm 0.00 Fair CLR 32.5 18.9 44% 34 76.4 0.0
30 10:50 Calm 0.00 Fair CLR 32 19 46% 33 76.4 0.0
30 10:30 Calm 0.00 Fair CLR 31 19.1 49% 32 76.4 0.0
30 10:10 Calm 0.00 Fair CLR 30.1 19.8 54% 32 76.4 0.0
30 09:50 Calm 0.00 Fair CLR 29.3 19.7 56% 31 76.4 0.0
30 09:30 Calm 0.00 Fair CLR 28.6 19.5 58% 30 76.4 0.0
30 09:10 Calm 0.00 Fair CLR 27.3 19.1 61% 29 76.4 0.0
30 08:50 Calm 0.00 Fair CLR 26.5 19 63% 28 76.4 0.0
30 08:30 Calm 0.00 Fair CLR 25.6 19.4 69% 27 76.4 0.0
30 08:10 Calm 0.00 Fair CLR 24.3 19.8 76% 25 76.4 0.0
30 07:50 Calm 0.00 Fair CLR 23.4 19.6 79% 76.4 0.0
30 07:30 Calm 0.00 NULL NULL 21.6 19.3 87% 76.4 0.0
30 07:10 Calm 0.00 NULL NULL 20.5 18.5 88% 76.38 0.0
30 06:50 Calm 0.00 NULL NULL 19.7 18.5 22.1 19.3 93% 76.35 0.0
30 06:30 Calm 0.00 NULL NULL 19.5 18.4 93% 76.35 0.0
30 06:10 Calm 0.00 NULL NULL 19.6 18.4 93% 76.33 0.0
30 05:50 Calm 0.00 NULL NULL 19.6 18.3 92% 76.33 0.0
30 05:30 Calm 0.00 NULL NULL 19.9 18.5 92% 76.33 0.0
30 05:10 Calm 0.00 NULL NULL 20.1 18.5 91% 76.3 0.0
30 04:50 Calm 0.00 NULL NULL 20.4 18.5 89% 76.28 0.0
30 04:30 Calm 0.00 NULL NULL 20.1 18.6 91% 76.28 0.0
30 04:10 Calm 0.00 NULL NULL 20 18.4 91% 76.28 0.0
30 03:50 Calm 0.00 NULL NULL 20.7 18.1 85% 76.28 0.0
30 03:30 Calm 0.00 NULL NULL 20.3 18.6 90% 76.28 0.0
30 03:10 Calm 0.00 NULL NULL 20.7 18.6 88% 76.28 0.0
30 02:50 Calm 0.00 NULL NULL 21.2 18.7 86% 76.3 0.0
30 02:30 Calm 0.00 NULL NULL 21 18.9 88% 76.3 0.0
30 02:10 Calm 0.00 Fair CLR 21.6 19 85% 76.3 0.0
30 01:50 Calm 0.00 Fair CLR 22.1 18.9 82% 76.33 0.0
30 01:30 Calm 0.00 NULL NULL 20.9 19.5 92% 76.3 0.0
30 01:10 Calm 0.00 NULL NULL 21.2 19.6 91% 76.33 0.0
30 00:50 Calm 0.00 NULL NULL 21.2 19.6 29.5 21.1 91% 76.33 0.0
30 00:30 Calm 0.00 NULL NULL 21.6 19.5 88% 76.33 0.0
30 00:10 Calm 0.00 Fair CLR 22.5 19.6 84% 76.33 0.0
29 23:50 Calm 0.00 Fair CLR 23 19.6 81% 76.33 0.0
29 23:30 Calm 0.00 Fair CLR 23 19.6 81% 76.3 0.0
29 23:10 Calm 0.00 Fair CLR 24 19.4 76% 25 76.3 0.0
29 22:30 Calm 0.00 Fair CLR 24.2 19.6 76% 25 76.3 0.0
29 22:10 Calm 0.00 Fair CLR 24.1 19.7 77% 25 76.3 0.0
29 21:50 Calm 0.00 Fair CLR 24 19.7 77% 25 76.3 0.0
29 21:30 Calm 0.00 Fair CLR 24.1 19.2 74% 25 76.28 0.0
29 21:10 Calm 0.00 Fair CLR 24.5 19.9 76% 25 76.28 0.0
29 20:50 Calm 0.00 Fair CLR 25 19.7 73% 26 76.25 0.0
29 20:30 Calm 0.00 Fair CLR 24.5 20.3 78% 25 76.23 0.0
29 20:10 Calm 0.00 Fair CLR 25 20.2 75% 26 76.23 0.0
29 19:50 Calm 0.00 Fair CLR 26.2 20.6 71% 28 76.23 0.0
29 19:30 Calm 0.00 Fair CLR 27 20.7 68% 29 76.2 0.0
29 19:10 Calm 0.00 Fair CLR 28.4 21.5 66% 31 76.2 0.0
29 18:50 Calm 0.00 Fair CLR 30 21.8 34.5 30 61% 33 76.2 0.0
29 18:30 Calm 0.00 Fair CLR 31.6 21.8 56% 35 76.2 0.0
29 18:10 Calm 0.00 Fair CLR 32.8 21.4 51% 36 76.2 0.0
29 17:50 Calm 0.00 Fair CLR 33.8 19.7 43% 36 76.2 0.0
29 17:30 Calm 0.00 Fair CLR 34.1 18.4 39% 35 76.2 0.0
29 17:10 Calm 0.00 Fair CLR 34.1 19.2 41% 36 76.23 0.0
29 16:50 Calm 0.00 Partly Cloudy SCT060 SCT070 34.5 19.1 40% 36 76.23 0.0
29 16:30 Calm 0.00 Partly Cloudy SCT060 34.5 18.6 39% 36 76.23 0.0
29 16:10 Calm 0.00 Fair CLR 34.3 18.7 40% 36 76.25 0.0
29 15:50 Calm 0.00 Fair CLR 34.3 18.7 40% 36 76.25 0.0
29 15:30 Calm 0.00 Fair CLR 34.2 18.2 39% 35 76.28 0.0
29 15:10 Calm 0.00 Fair CLR 34.4 18.4 39% 36 76.3 0.0
29 14:50 Calm 0.00 Fair CLR 33.4 18.8 42% 35 76.3 0.0
29 14:30 Calm 0.00 Fair CLR 33.8 17.8 39% 35 76.33 0.0
29 14:10 Calm 0.00 Partly Cloudy SCT060 SCT085 34 19.6 43% 36 76.35 0.0
29 13:50 Calm 0.00 Partly Cloudy SCT060 33.2 18.5 42% 34 76.38 0.0
29 13:30 Calm 0.00 Fair CLR 33.5 18.2 40% 35 76.38 0.0
29 13:10 Calm 0.00 Fair CLR 33.7 18 39% 35 76.4 0.0
29 12:50 Calm 0.00 Fair CLR 33.6 18.6 33.6 20.1 41% 35 76.4 0.0
29 12:30 Calm 0.00 Fair CLR 33 18.3 42% 34 76.43 0.0
29 12:10 Calm 0.00 Partly Cloudy SCT065 32.5 18.9 44% 34 76.45 0.0
29 11:50 Calm 0.00 Mostly Cloudy BKN065 32.1 18.3 44% 33 76.48 0.0
29 11:30 Calm 0.00 Mostly Cloudy BKN065 31.9 18.6 45% 33 76.48 0.0
29 11:10 Calm 0.00 Mostly Cloudy BKN065 30.8 18.7 48% 32 76.48 0.0
29 10:50 Calm 0.00 Mostly Cloudy BKN065 BKN075 31.3 19.3 49% 33 76.48 0.0
29 10:30 Calm 0.00 Partly Cloudy SCT065 30.6 19 50% 32 76.48 0.0
29 10:10 Calm 0.00 Partly Cloudy SCT065 30.1 20.3 56% 32 76.48 0.0
29 09:50 Calm 0.00 Partly Cloudy SCT070 SCT090 28.8 20.2 60% 31 76.48 0.0
29 09:30 Calm 0.00 Mostly Cloudy SCT050 BKN070 BKN090 26.9 19.9 66% 28 76.48 0.0
29 09:10 Calm 0.00 Mostly Cloudy SCT050 BKN070 BKN080 27.2 19.5 63% 29 76.48 0.0
29 08:50 Calm 0.00 Partly Cloudy SCT050 SCT070 SCT080 25.3 19 68% 26 76.48 0.0
29 08:30 Calm 0.00 Partly Cloudy SCT070 25.2 18.8 68% 26 76.45 0.0
29 08:10 Calm 0.00 Fair CLR 24.2 18.3 70% 25 76.45 0.0
29 07:50 Calm 0.00 Partly Cloudy SCT070 SCT080 23.3 18.2 73% 76.43 0.0
29 07:30 Calm 0.00 Fair CLR 21.4 18.9 86% 76.4 0.0
29 07:10 Calm 0.00 NULL NULL 20.8 18.1 85% 76.4 0.0
29 06:50 Calm 0.00 NULL NULL 19.7 18.2 25.1 19.6 91% 76.4 0.0
29 06:30 Calm 0.00 NULL NULL 19.7 18.4 92% 76.38 0.0
29 06:10 Calm 0.00 NULL NULL 20 18 88% 76.38 0.0
29 05:50 Calm 0.00 NULL NULL 20.5 18 86% 76.38 0.0
29 05:30 Calm 0.00 Fair CLR 21 18.1 84% 76.35 0.0
29 05:10 Calm 0.00 NULL NULL 20.6 18.5 88% 76.38 0.0
29 04:50 Calm 0.00 Partly Cloudy SCT090 20.9 18.5 86% 76.38 0.0
29 04:30 Calm 0.00 NULL NULL 20.8 18.3 86% 76.35 0.0
29 04:10 Calm 0.00 NULL NULL 20.3 18.3 88% 76.35 0.0
29 03:50 Calm 0.00 NULL NULL 20.5 18.9 91% 76.35 0.0
29 03:30 Calm 0.00 NULL NULL 20.6 18.7 89% 76.35 0.0
29 03:10 Calm 0.00 NULL NULL 20.8 18.7 88% 76.33 0.0
29 02:50 Calm 0.00 NULL NULL 21 19.1 89% 76.33 0.0
29 02:30 Calm 0.00 Fair CLR 21.5 19.1 86% 76.33 0.0
29 02:10 Calm 0.00 Fair CLR 22.7 18.4 77% 76.33 0.0
29 01:50 Calm 0.00 Fair CLR 23.8 17.7 69% 76.33 0.0
29 01:30 Calm 0.00 Partly Cloudy SCT075 24.2 17.6 67% 25 76.33 0.0
29 01:10 Calm 0.00 Fair CLR 24.8 17.4 64% 26 76.33 0.0
29 00:50 Calm 0.00 Fair CLR 25 17.3 26.3 23 62% 26 76.33 0.0
29 00:30 Calm 0.00 Fair CLR 24.7 18.3 68% 26 76.33 0.0
29 00:10 Calm 0.00 Fair CLR 24.4 19.4 74% 25 76.35 0.0
28 23:50 Calm 0.00 Fair CLR 24.5 20 76% 25 76.33 0.0
28 23:30 Calm 0.00 Fair CLR 24.2 20.6 80% 25 76.35 0.0
28 23:10 Calm 0.00 NULL NULL 23.3 22 92% 76.33 0.0
28 22:50 Calm 0.00 NULL NULL 23.2 22.6 96% 76.33 0.0
28 22:30 Calm 0.00 Mostly Cloudy BKN065 23.2 22.7 97% 76.33 0.0
28 22:10 Calm 0.00 NULL NULL 23.2 22.5 96% 76.3 0.0
28 21:50 Calm 0.00 NULL NULL 23.5 22.2 92% 76.3 0.0
28 21:30 Calm 0.00 NULL NULL 23.2 22.2 94% 76.28 0.0
28 21:10 Calm 0.00 NULL NULL 23.5 22.4 94% 76.28 0.0
28 20:50 Calm 0.00 NULL NULL 23.5 22.6 95% 76.25 0.0
28 20:30 Calm 0.00 NULL NULL 24.1 23.2 95% 23 76.23 0.0
28 20:10 Calm 0.00 NULL NULL 24.1 23.3 95% 23 76.23 0.0
28 19:50 Calm 0.00 NULL NULL 24.5 23.2 93% 24 76.2 0.0
28 19:30 Calm 0.00 NULL NULL 25.1 23.6 91% 26 76.2 0.0
28 19:10 Calm 0.00 NULL NULL 26 23.8 88% 28 76.17 0.0
28 18:50 Calm 0.00 Fair CLR 26.2 23.2 35.6 24 84% 28 76.17 0.0 0.08
28 18:30 Calm 0.00 Fair CLR 26.1 23.4 85% 28 76.2 0.0
28 18:10 Calm 0.00 Fair CLR 25.9 23.2 85% 28 76.2 0.0
28 17:50 Calm 0.00 NULL NULL 25.7 23.5 88% 27 76.2 0.0
28 17:30 Calm 0.00 Mostly Cloudy BKN110 25.7 23.8 89% 27 76.17 0.0
28 17:10 Calm 0.00 NULL NULL 25 22.9 88% 26 76.2 0.0
28 16:50 Calm 0.00 Mostly Cloudy BKN100 BKN120 24.6 22.2 87% 25 76.2 0.0 0.05
28 16:30 Calm 0.00 NULL NULL 24.5 22.4 88% 25 76.23 0.0 0.05
28 16:20 Calm 0.00 Overcast OVC090 24.1 21.8 87% 24 76.25 0.0 0.05
28 15:50 NW 13 G 35 0.00 Mostly Cloudy SCT048 SCT065 BKN110 26.4 20.7 71% 28 76.33 0.0 0.03
28 15:30 N 9 0.00 Partly Cloudy SCT065 SCT120 30.3 21.8 60% 34 76.3 0.0
28 15:10 Calm 0.00 Fair CLR 29.5 21.4 62% 32 76.25 0.0
28 14:50 Calm 0.00 Fair CLR 31 23.3 64% 36 76.25 0.0 0.03
28 14:30 Calm 0.00 Mostly Cloudy SCT027 SCT043 BKN055 26.7 20.6 69% 28 76.25 0.0 0.03
28 14:10 Calm 0.00 Mostly Cloudy BKN055 BKN090 34.6 20.8 44% 38 76.3 0.0
28 13:50 Calm 0.00 Partly Cloudy SCT065 35.5 21.1 43% 39 76.28 0.0
28 13:30 Calm 0.00 Partly Cloudy SCT080 34.8 20.4 43% 38 76.3 0.0
28 13:10 Calm 0.00 Mostly Cloudy SCT050 SCT065 BKN085 34.4 21.2 46% 38 76.33 0.0
28 12:50 Calm 0.00 Partly Cloudy SCT095 34.7 21.4 34.7 23 46% 38 76.33 0.0
28 12:30 Calm 0.00 Fair CLR 34.2 21.6 48% 38 76.35 0.0
28 12:10 Calm 0.00 Fair CLR 33.9 21.4 48% 38 76.38 0.0
28 11:50 Calm 0.00 Fair CLR 33.6 21.5 49% 37 76.38 0.0
28 11:30 Calm 0.00 Partly Cloudy SCT110 33.2 21.1 49% 36 76.4 0.0
28 11:10 Calm 0.00 Mostly Cloudy SCT090 BKN110 32.1 21.7 54% 36 76.4 0.0
28 10:50 Calm 0.00 Mostly Cloudy BKN090 BKN110 33.7 21.9 50% 38 76.4 0.0
28 10:30 Calm 0.00 Mostly Cloudy BKN110 32.7 21.6 52% 36 76.4 0.0
28 10:10 Calm 0.00 Partly Cloudy SCT100 31.6 21.7 56% 35 76.4 0.0
28 09:50 Calm 0.00 Partly Cloudy SCT100 31.2 21.6 57% 34 76.38 0.0
28 09:30 Calm 0.00 Fair CLR 30.1 22.2 63% 34 76.38 0.0
28 09:10 Calm 0.00 Fair CLR 29 22 66% 32 76.38 0.0
28 08:50 Calm 0.00 Fair CLR 27.8 22.1 71% 30 76.38 0.0
28 08:30 Calm 0.00 Fair CLR 27 22.4 76% 29 76.38 0.0
Date Time (cdt) Wind (kph) Vis. (km) Weather Sky Cond. Air Dwpt Max. Min. Relative Humidity Wind Chill (°C) Heat Index (°C) altimeter (cm) sea level (mb) 1 hr 3 hr 6 hr
6 hour
Temperature (ºC) Pressure Precipitation (cm)